Time;durP1;ratioP1;P1;durP2;ratioP2;P2;SDS_P1;SDS_P2;PMS_P1;PMS_P2;Temp;Humidity;BMP_temperature;BMP_pressure;BME280_temperature;BME280_humidity;BME280_pressure;Samples;Min_cycle;Max_cycle;Signal;HPM_P1;HPM_P2
2023/07/21 07:01:22;;;;;;;4.50;3.90;;;19.50;99.90;21.30;100927.00;;;;6172653;22;1334195;-65
2023/07/21 07:03:47;;;;;;;5.00;3.50;;;19.40;99.90;21.50;100928.00;;;;6217503;23;20168;-65
2023/07/21 07:06:31;;;;;;;0.10;0.10;;;19.60;99.90;22.80;100930.00;;;;6217633;23;20154;-65
2023/07/21 07:08:56;;;;;;;0.30;0.30;;;19.90;99.90;25.90;100975.00;;;;6217163;23;20146;-65
2023/07/21 07:11:22;;;;;;;0.65;0.65;;;21.80;99.90;24.00;100952.00;;;;6217873;23;20146;-65
2023/07/21 07:13:48;;;;;;;1.80;1.70;;;21.80;99.90;23.10;100946.00;;;;6217495;23;20237;-65
2023/07/21 07:16:14;;;;;;;4.38;3.80;;;21.10;99.90;24.30;100932.00;;;;6217696;23;20555;-65
2023/07/21 07:18:40;;;;;;;1.02;1.02;;;21.60;99.90;22.80;100942.00;;;;6217354;23;20166;-65
2023/07/21 07:21:06;;;;;;;0.25;0.25;;;21.30;99.90;25.70;100964.00;;;;6217609;23;20146;-65
2023/07/21 07:23:32;;;;;;;7.45;5.68;;;22.50;99.90;26.80;100982.00;;;;6217225;23;20204;-64
2023/07/21 07:25:57;;;;;;;3.90;1.50;;;23.80;99.90;25.20;100996.00;;;;6217110;23;20170;-65
2023/07/21 07:28:24;;;;;;;6.03;4.85;;;23.50;99.90;24.90;100971.00;;;;6190877;23;20154;-65
2023/07/21 07:30:50;;;;;;;4.05;3.40;;;23.00;99.90;23.10;100919.00;;;;6214765;23;20177;-65
2023/07/21 07:33:16;;;;;;;1.67;1.50;;;21.70;99.90;25.30;100948.00;;;;6217594;23;20182;-65
2023/07/21 07:35:54;;;;;;;2.72;1.95;;;22.40;99.90;27.60;100995.00;;;;6216555;23;20138;-65
2023/07/21 07:38:24;;;;;;;2.53;0.95;;;24.20;99.90;28.10;101022.00;;;;6190996;23;20601;-65
2023/07/21 07:40:55;;;;;;;0.10;0.10;;;25.10;99.90;30.00;101028.00;;;;6217237;23;20146;-65
2023/07/21 07:43:26;;;;;;;0.20;0.20;;;26.10;99.90;30.80;101024.00;;;;6191376;23;20163;-65
2023/07/21 07:45:52;;;;;;;0.30;0.30;;;27.10;99.90;30.30;101034.00;;;;6217233;23;20563;-65
2023/07/21 07:48:22;;;;;;;1.55;0.73;;;27.70;99.90;31.10;101030.00;;;;6217243;23;20145;-65
2023/07/21 07:50:48;;;;;;;0.47;0.47;;;27.60;99.90;28.20;101075.00;;;;6217107;23;20143;-65
2023/07/21 07:53:14;;;;;;;1.90;1.17;;;26.40;99.90;25.50;101104.00;;;;6217322;23;20629;-64
2023/07/21 07:55:42;;;;;;;0.50;0.50;;;24.70;99.90;23.50;101024.00;;;;6216354;23;20166;-64
2023/07/21 07:58:09;;;;;;;2.15;1.77;;;22.60;99.90;22.30;100973.00;;;;6217123;23;20590;-64
2023/07/21 08:00:41;;;;;;;0.52;0.52;;;21.30;99.90;24.80;100965.00;;;;6188934;23;20174;-64
2023/07/21 08:03:13;;;;;;;1.88;1.80;;;21.70;99.90;23.20;100958.00;;;;6216592;23;20170;-64
2023/07/21 08:05:41;;;;;;;2.70;2.40;;;21.30;99.90;22.20;100933.00;;;;6216112;23;20158;-64
2023/07/21 08:08:10;;;;;;;0.65;0.65;;;20.70;99.90;22.60;100965.00;;;;6216643;23;20158;-71
2023/07/21 08:10:39;;;;;;;4.97;4.53;;;20.50;99.90;22.50;100967.00;;;;6190511;23;20197;-68
2023/07/21 08:13:08;;;;;;;5.63;3.38;;;20.30;99.90;22.00;100963.00;;;;6191351;23;20151;-66
2023/07/21 08:15:34;;;;;;;0.30;0.30;;;20.10;99.90;21.80;100964.00;;;;6216538;23;20143;-67
2023/07/21 08:18:00;;;;;;;1.35;1.25;;;20.20;99.90;21.80;100964.00;;;;6216705;23;20474;-66
2023/07/21 08:20:28;;;;;;;2.75;2.40;;;20.00;99.90;23.20;100987.00;;;;6190380;23;20196;-66
2023/07/21 08:22:54;;;;;;;2.60;2.22;;;20.60;99.90;24.70;100995.00;;;;6189658;23;20170;-67
2023/07/21 08:25:20;;;;;;;16.35;4.57;;;21.70;99.90;23.60;100991.00;;;;6217017;23;20593;-67
2023/07/21 08:27:46;;;;;;;4.82;4.43;;;21.80;99.90;23.10;100984.00;;;;6190443;23;20147;-67
2023/07/21 08:30:14;;;;;;;1.95;1.85;;;21.40;99.90;22.70;100979.00;;;;6190011;23;20229;-67
2023/07/21 08:32:42;;;;;;;4.05;2.40;;;20.90;99.90;22.70;100988.00;;;;6190050;23;20169;-67
2023/07/21 08:35:09;;;;;;;2.67;2.03;;;21.00;99.90;22.40;100987.00;;;;6190443;23;20200;-69
2023/07/21 08:37:40;;;;;;;2.47;2.03;;;20.70;99.90;22.40;100989.00;;;;6190302;23;20143;-65
2023/07/21 08:40:16;;;;;;;4.80;3.78;;;20.30;99.90;21.60;100943.00;;;;6215656;23;20147;-66
2023/07/21 08:42:49;;;;;;;14.70;5.03;;;19.90;99.90;22.50;100992.00;;;;6215800;23;20229;-66
2023/07/21 08:45:29;;;;;;;1.63;1.52;;;20.30;99.90;22.20;100985.00;;;;6189764;23;20260;-67
2023/07/21 08:48:06;;;;;;;6.35;5.68;;;20.40;99.90;22.30;100975.00;;;;6189884;23;20455;-66
2023/07/21 08:50:35;;;;;;;0.40;0.40;;;20.50;99.90;23.20;100984.00;;;;6189613;23;20143;-66
2023/07/21 08:53:04;;;;;;;4.85;1.90;;;20.50;99.90;25.00;100988.00;;;;6188661;23;20223;-66
2023/07/21 08:55:31;;;;;;;0.60;0.60;;;21.80;99.90;24.20;100986.00;;;;6216380;23;20472;-67
2023/07/21 08:57:59;;;;;;;3.45;3.10;;;22.20;99.90;25.70;101018.00;;;;6188833;23;20150;-66
2023/07/21 09:00:26;;;;;;;1.67;1.58;;;23.10;99.90;25.20;101028.00;;;;6189189;23;20257;-66
2023/07/21 09:03:03;;;;;;;3.00;1.58;;;23.10;99.90;25.10;100994.00;;;;6190125;23;20529;-66
2023/07/21 09:05:29;;;;;;;0.22;0.22;;;22.70;99.90;26.00;101012.00;;;;6216718;23;20197;-66
2023/07/21 09:07:57;;;;;;;3.65;2.80;;;23.40;99.90;27.00;101044.00;;;;6189599;23;20162;-67
2023/07/21 09:10:31;;;;;;;1.85;1.73;;;24.60;99.90;26.60;101031.00;;;;6188829;23;20158;-66
2023/07/21 09:13:01;;;;;;;0.38;0.38;;;24.30;99.90;27.60;101049.00;;;;6216394;23;20134;-66
2023/07/21 09:15:29;;;;;;;0.32;0.32;;;24.60;99.90;24.00;101072.00;;;;6189014;23;20143;-66
2023/07/21 09:18:05;;;;;;;3.17;2.20;;;23.00;99.90;22.60;100988.00;;;;6189515;23;20147;-66
2023/07/21 09:20:35;;;;;;;0.77;0.77;;;21.50;99.90;24.80;100991.00;;;;6190682;23;20559;-66
2023/07/21 09:23:05;;;;;;;5.63;3.13;;;21.80;99.90;22.70;100987.00;;;;6188473;23;20169;-67
2023/07/21 09:25:34;;;;;;;3.13;2.88;;;21.30;99.90;22.80;100972.00;;;;6164474;23;20237;-66
2023/07/21 09:28:08;;;;;;;0.15;0.15;;;20.90;99.90;24.10;100978.00;;;;6215818;23;20151;-66
2023/07/21 09:30:52;;;;;;;3.08;2.63;;;21.20;99.90;23.20;100992.00;;;;6215409;23;20563;-70
2023/07/21 09:33:26;;;;;;;7.88;4.90;;;21.10;99.90;23.00;100993.00;;;;6189378;23;20147;-63
2023/07/21 09:36:04;;;;;;;4.38;3.45;;;21.00;99.90;22.10;100960.00;;;;6215794;23;20148;-63
2023/07/21 09:38:31;;;;;;;3.40;1.92;;;20.50;99.90;21.80;100988.00;;;;6216412;23;20146;-63
2023/07/21 09:41:14;;;;;;;0.20;0.20;;;20.10;99.90;22.70;101019.00;;;;6188920;23;20166;-63
2023/07/21 09:43:42;;;;;;;0.85;0.85;;;20.10;99.90;23.40;101035.00;;;;6189412;23;20498;-63
2023/07/21 09:46:10;;;;;;;0.73;0.73;;;20.60;99.90;22.60;101029.00;;;;6215595;23;20150;-63
2023/07/21 09:48:37;;;;;;;0.15;0.15;;;20.50;99.90;21.80;101018.00;;;;6188086;23;20180;-63
2023/07/21 09:51:07;;;;;;;0.20;0.20;;;19.90;99.90;21.70;101031.00;;;;6214850;23;20146;-63
2023/07/21 09:53:45;;;;;;;0.20;0.20;;;19.60;99.90;20.80;101017.00;;;;6215822;23;20596;-63
2023/07/21 09:56:15;;;;;;;0.50;0.50;;;19.10;99.90;20.70;101009.00;;;;6215407;23;20189;-63
2023/07/21 09:59:00;;;;;;;0.20;0.20;;;18.60;99.90;21.00;101016.00;;;;6188460;23;20245;-64
2023/07/21 10:01:30;;;;;;;0.30;0.30;;;18.50;99.90;20.50;101020.00;;;;6189174;23;20164;-63
2023/07/21 10:03:59;;;;;;;0.90;0.90;;;18.30;99.90;20.90;101003.00;;;;6189425;23;20179;-68
2023/07/21 10:06:25;;;;;;;0.47;0.47;;;18.30;99.90;20.20;100986.00;;;;6164790;23;20169;-64
2023/07/21 10:08:52;;;;;;;0.33;0.33;;;17.90;99.90;20.70;100999.00;;;;6215536;23;20169;-64
2023/07/21 10:11:22;;;;;;;0.20;0.20;;;18.10;99.90;20.90;100997.00;;;;6215022;23;20166;-67
2023/07/21 10:13:51;;;;;;;0.20;0.20;;;18.20;99.90;21.00;100995.00;;;;6189550;23;20153;-66
2023/07/21 10:16:25;;;;;;;0.20;0.20;;;18.20;99.90;21.00;100998.00;;;;6214504;23;20576;-65
2023/07/21 10:19:12;;;;;;;0.20;0.20;;;18.30;99.90;21.10;100982.00;;;;6162824;23;20159;-65
2023/07/21 10:33:29;;;;;;;0.40;0.40;;;18.80;99.90;23.40;100960.00;;;;5082298;28;20605;-65
2023/07/21 10:36:13;;;;;;;0.10;0.10;;;20.60;99.90;25.60;101007.00;;;;5054872;28;20280;-66
2023/07/21 10:38:42;;;;;;;0.75;0.75;;;22.20;99.90;26.10;101031.00;;;;5055211;28;20182;-63
2023/07/21 10:41:11;;;;;;;0.38;0.15;;;23.20;99.90;24.50;101001.00;;;;5053247;28;20687;-64
2023/07/21 10:43:39;;;;;;;0.10;0.10;;;22.90;99.90;26.00;101033.00;;;;5056258;28;20182;-64
2023/07/21 10:46:14;;;;;;;0.10;0.10;;;23.20;99.90;26.80;101023.00;;;;5055471;28;20223;-64
2023/07/21 10:48:59;;;;;;;0.30;0.30;;;23.50;99.90;26.20;101051.00;;;;5056615;28;20178;-64
2023/07/21 10:51:30;;;;;;;3.97;3.28;;;23.40;99.90;21.40;100984.00;;;;5056544;28;20236;-65
2023/07/21 10:54:02;;;;;;;2.17;1.10;;;21.10;99.90;21.60;100987.00;;;;5052594;28;20193;-65
2023/07/21 10:56:48;;;;;;;1.10;1.10;;;19.80;99.90;21.80;100996.00;;;;5047290;28;20204;-65
2023/07/21 10:59:32;;;;;;;0.50;0.50;;;19.40;99.90;21.80;100989.00;;;;5046854;28;20251;-65
2023/07/21 11:02:03;;;;;;;0.30;0.30;;;19.30;99.90;22.20;100994.00;;;;5048753;28;20190;-65
2023/07/21 11:04:35;;;;;;;0.30;0.30;;;19.40;99.90;22.30;100978.00;;;;5047731;28;20193;-65
2023/07/21 11:07:38;;;;;;;0.30;0.30;;;19.40;99.90;23.00;100993.00;;;;5049459;28;20255;-65
2023/07/21 11:10:36;;;;;;;0.30;0.30;;;19.80;99.90;23.50;100995.00;;;;5057593;28;20194;-65
2023/07/21 11:13:18;;;;;;;0.35;0.35;;;20.20;99.90;23.80;100985.00;;;;5048659;28;20684;-64
2023/07/21 11:15:59;;;;;;;0.68;0.68;;;20.70;99.90;23.60;100979.00;;;;5048696;28;20197;-65
2023/07/21 11:18:30;;;;;;;0.20;0.20;;;20.70;99.90;24.80;101003.00;;;;5048487;28;20640;-69
2023/07/21 11:21:00;;;;;;;0.30;0.30;;;21.80;99.90;26.30;101013.00;;;;5035808;28;20536;-64
2023/07/21 11:23:35;;;;;;;0.52;0.52;;;23.00;99.90;26.30;101042.00;;;;5049467;28;20240;-64
2023/07/21 11:26:13;;;;;;;1.17;1.05;;;24.00;99.90;25.80;101025.00;;;;5048845;28;20574;-64
2023/07/21 11:28:40;;;;;;;1.60;0.68;;;23.50;99.90;25.90;101029.00;;;;5046367;28;20198;-64
2023/07/21 11:31:20;;;;;;;0.10;0.10;;;23.20;99.90;27.60;101020.00;;;;5048770;28;20183;-64
2023/07/21 11:33:48;;;;;;;0.10;0.10;;;24.30;99.90;27.80;101041.00;;;;5037339;28;20196;-64
2023/07/21 11:36:21;;;;;;;0.20;0.20;;;24.70;99.90;27.80;101076.00;;;;5046492;28;20178;-64
2023/07/21 11:39:04;;;;;;;1.10;1.00;;;24.60;99.90;27.00;101066.00;;;;5037465;28;20655;-64
2023/07/21 11:41:44;;;;;;;0.20;0.20;;;24.30;99.90;26.30;101015.00;;;;5047625;28;20715;-64
2023/07/21 11:44:18;;;;;;;0.17;0.17;;;23.60;99.90;25.70;101028.00;;;;5037521;28;20195;-64
2023/07/21 11:47:04;;;;;;;1.65;0.73;;;23.10;99.90;25.40;101000.00;;;;5023966;28;20178;-64
2023/07/21 11:49:31;;;;;;;1.02;1.02;;;22.70;99.90;25.30;101019.00;;;;5032905;28;20190;-64
2023/07/21 11:52:02;;;;;;;1.85;1.10;;;22.50;99.90;24.70;101021.00;;;;5035491;28;20202;-64
2023/07/21 11:54:38;;;;;;;3.53;1.35;;;22.20;99.90;24.40;101027.00;;;;5035270;28;20633;-64
2023/07/21 11:57:05;;;;;;;3.53;1.20;;;21.80;99.90;24.40;101018.00;;;;5034799;28;20336;-64
2023/07/21 11:59:31;;;;;;;0.10;0.10;;;21.70;99.90;24.70;101027.00;;;;5033195;28;20183;-64
2023/07/21 12:02:02;;;;;;;0.17;0.17;;;21.80;99.90;24.70;101032.00;;;;5038485;28;20592;-64
2023/07/21 12:04:28;;;;;;;0.75;0.75;;;22.00;99.90;25.00;101034.00;;;;5027856;28;20186;-64
2023/07/21 12:06:54;;;;;;;2.40;2.20;;;22.00;99.90;24.90;101037.00;;;;5034703;28;20181;-64
2023/07/21 12:09:20;;;;;;;0.30;0.30;;;22.20;99.90;25.10;101033.00;;;;5033120;28;20676;-64
2023/07/21 12:11:47;;;;;;;0.30;0.30;;;22.50;99.90;25.60;101055.00;;;;5035489;28;20532;-64
2023/07/21 12:14:33;;;;;;;1.30;0.85;;;22.70;99.90;26.20;101083.00;;;;5034407;28;20605;-64
2023/07/21 12:17:04;;;;;;;1.05;1.05;;;23.20;99.90;27.00;101093.00;;;;5032371;28;20198;-64
2023/07/21 12:19:30;;;;;;;0.20;0.20;;;23.70;99.90;27.40;101114.00;;;;5035366;28;20270;-65
2023/07/21 12:21:58;;;;;;;0.20;0.20;;;24.10;99.90;27.70;101122.00;;;;5035082;28;20269;-64
2023/07/21 12:24:24;;;;;;;0.50;0.40;;;24.30;99.90;27.20;101132.00;;;;5034485;28;20222;-64
2023/07/21 12:26:50;;;;;;;0.63;0.50;;;24.40;99.90;27.60;101118.00;;;;5034795;28;20245;-64
2023/07/21 12:29:16;;;;;;;1.02;0.68;;;24.60;99.90;27.30;101142.00;;;;5034105;28;20189;-64
2023/07/21 12:31:42;;;;;;;0.10;0.10;;;24.40;99.90;26.50;101139.00;;;;5032768;28;20661;-64
2023/07/21 12:34:08;;;;;;;0.45;0.45;;;24.00;99.90;27.00;101145.00;;;;5033558;28;20194;-64
2023/07/21 12:36:34;;;;;;;0.20;0.20;;;24.00;99.90;26.80;101138.00;;;;5029246;28;20607;-64
2023/07/21 12:39:09;;;;;;;1.17;1.08;;;23.80;99.90;25.40;101132.00;;;;5033767;28;20301;-63
2023/07/21 12:41:40;;;;;;;0.40;0.40;;;23.30;99.90;25.80;101138.00;;;;5034611;28;20589;-65
2023/07/21 12:44:06;;;;;;;0.50;0.50;;;23.10;99.90;26.30;101120.00;;;;5034852;28;20550;-63
2023/07/21 12:46:32;;;;;;;2.15;1.38;;;23.30;99.90;26.70;101110.00;;;;5035005;28;20178;-63
2023/07/21 12:49:00;;;;;;;0.45;0.45;;;23.50;99.90;26.60;101105.00;;;;5032848;28;20590;-64
2023/07/21 12:51:26;;;;;;;2.17;0.45;;;23.70;99.90;27.20;101114.00;;;;5034306;28;20772;-63
2023/07/21 12:53:52;;;;;;;0.30;0.30;;;24.00;99.90;26.90;101107.00;;;;5034388;28;20265;-63
2023/07/21 12:56:17;;;;;;;0.35;0.35;;;23.80;99.90;26.00;101133.00;;;;5031342;28;20222;-64
2023/07/21 12:58:43;;;;;;;0.50;0.50;;;23.50;99.90;26.30;101087.00;;;;5034361;28;20552;-64
2023/07/21 13:01:09;;;;;;;0.10;0.10;;;23.30;99.90;26.60;101119.00;;;;5034191;28;20170;-64
2023/07/21 13:03:35;;;;;;;0.73;0.73;;;23.30;99.90;26.40;101131.00;;;;5034190;28;20676;-64
2023/07/21 13:06:02;;;;;;;13.65;1.25;;;23.40;99.90;26.80;101111.00;;;;5034304;28;20189;-64
2023/07/21 13:08:28;;;;;;;0.40;0.40;;;23.60;99.90;27.00;101090.00;;;;5033114;28;20214;-64
2023/07/21 13:10:54;;;;;;;0.38;0.38;;;23.70;99.90;27.20;101119.00;;;;5033621;28;20191;-64
2023/07/21 13:13:20;;;;;;;0.25;0.25;;;23.90;99.90;27.10;101114.00;;;;5033588;28;20213;-64
2023/07/21 13:15:45;;;;;;;0.45;0.45;;;24.00;99.90;27.50;101079.00;;;;5032740;28;20232;-64
2023/07/21 13:18:11;;;;;;;0.25;0.25;;;24.10;99.90;27.30;101105.00;;;;5032007;28;20217;-64
2023/07/21 13:20:37;;;;;;;0.35;0.35;;;24.10;99.90;26.30;101128.00;;;;5033808;28;20183;-64
2023/07/21 13:23:03;;;;;;;3.00;1.45;;;23.70;99.90;26.70;101123.00;;;;5033377;28;20194;-64
2023/07/21 13:25:29;;;;;;;0.20;0.20;;;23.60;99.90;27.30;101110.00;;;;5032714;28;20552;-63
2023/07/21 13:27:55;;;;;;;1.27;0.50;;;23.80;99.90;27.20;101112.00;;;;5033773;28;20182;-64
2023/07/21 13:30:21;;;;;;;3.10;1.40;;;23.90;99.90;25.80;101139.00;;;;5019634;28;20187;-64
2023/07/21 13:32:47;;;;;;;1.20;1.10;;;23.60;99.90;26.40;101129.00;;;;5032536;28;20226;-64
2023/07/21 13:35:15;;;;;;;1.00;0.98;;;23.40;99.90;26.60;101148.00;;;;5033969;28;20533;-65
2023/07/21 13:37:48;;;;;;;2.50;2.00;;;23.50;99.90;26.70;101141.00;;;;5033689;28;20185;-65
2023/07/21 13:40:14;;;;;;;1.23;1.23;;;23.50;99.90;26.70;101150.00;;;;5028726;28;20179;-65
2023/07/21 13:42:40;;;;;;;0.40;0.40;;;23.60;99.90;26.80;101140.00;;;;5033560;28;20183;-64
2023/07/21 13:45:07;;;;;;;0.10;0.10;;;23.60;99.90;26.90;101154.00;;;;5033664;28;20186;-65
2023/07/21 13:48:13;;;;;;;0.52;0.52;;;23.70;99.90;27.20;101164.00;;;;5033339;28;20562;-65
2023/07/21 13:50:39;;;;;;;0.30;0.30;;;23.80;99.90;27.40;101134.00;;;;5032053;28;20182;-65
2023/07/21 13:53:04;;;;;;;0.40;0.40;;;23.90;99.90;26.90;101163.00;;;;5033259;28;20206;-65
2023/07/21 13:55:31;;;;;;;0.55;0.55;;;23.90;99.90;26.90;101172.00;;;;5033764;28;20274;-64
2023/07/21 13:57:56;;;;;;;0.40;0.20;;;23.90;99.90;27.20;101155.00;;;;5033237;28;20175;-65
2023/07/21 14:00:22;;;;;;;0.15;0.15;;;24.00;99.90;26.80;101169.00;;;;5033658;28;20183;-64
2023/07/21 14:02:48;;;;;;;0.20;0.20;;;23.70;99.90;26.60;101184.00;;;;5033385;28;20645;-65
2023/07/21 14:05:14;;;;;;;1.00;1.00;;;23.60;99.90;26.60;101200.00;;;;5033169;28;20182;-65
2023/07/21 14:07:41;;;;;;;0.47;0.47;;;23.50;99.90;26.60;101183.00;;;;5033021;28;20179;-65
2023/07/21 14:10:08;;;;;;;1.60;1.15;;;23.50;99.90;26.50;101212.00;;;;5032074;28;20193;-64
2023/07/21 14:12:34;;;;;;;0.10;0.10;;;23.40;99.90;26.60;101209.00;;;;5043215;28;20196;-64
2023/07/21 14:15:00;;;;;;;3.20;2.42;;;23.50;99.90;24.70;101242.00;;;;5033060;28;20593;-64
2023/07/21 14:17:25;;;;;;;0.32;0.32;;;22.80;99.90;25.00;101234.00;;;;5033355;28;20541;-64
2023/07/21 14:19:51;;;;;;;0.90;0.88;;;22.20;99.90;25.00;101246.00;;;;5031679;28;20182;-64
2023/07/21 14:22:17;;;;;;;0.20;0.20;;;22.40;99.90;26.20;101237.00;;;;5031894;28;20197;-64
2023/07/21 14:24:43;;;;;;;0.10;0.10;;;22.90;99.90;26.60;101204.00;;;;5033008;28;20194;-64
2023/07/21 14:27:09;;;;;;;0.30;0.30;;;23.20;99.90;26.70;101234.00;;;;5033269;28;20179;-64
2023/07/21 14:29:35;;;;;;;0.10;0.10;;;23.30;99.90;26.40;101202.00;;;;5032926;28;20274;-65
2023/07/21 14:32:00;;;;;;;0.10;0.10;;;23.40;99.90;26.90;101220.00;;;;5032945;28;20214;-65
2023/07/21 14:34:26;;;;;;;0.10;0.10;;;23.40;99.90;26.80;101226.00;;;;5032921;28;20539;-65
2023/07/21 14:36:52;;;;;;;0.38;0.38;;;23.50;99.90;26.70;101229.00;;;;5033315;28;20187;-65
2023/07/21 14:39:18;;;;;;;0.63;0.63;;;23.40;99.90;26.40;101223.00;;;;5032784;28;20593;-65
2023/07/21 14:41:43;;;;;;;0.73;0.35;;;23.40;99.90;26.70;101223.00;;;;5033432;28;20183;-65
2023/07/21 14:44:09;;;;;;;1.35;1.25;;;23.30;99.90;26.10;101203.00;;;;5032973;28;20538;-64
2023/07/21 14:46:35;;;;;;;4.63;2.30;;;23.20;99.90;25.80;101245.00;;;;5033266;28;20222;-64
2023/07/21 14:49:04;;;;;;;0.10;0.10;;;23.10;99.90;26.30;101240.00;;;;5032920;28;20640;-65
2023/07/21 14:51:30;;;;;;;0.28;0.28;;;23.10;99.90;26.60;101218.00;;;;5032844;28;20191;-65
2023/07/21 14:53:56;;;;;;;0.10;0.10;;;23.30;99.90;26.40;101198.00;;;;5032500;28;20336;-64
2023/07/21 14:56:21;;;;;;;0.10;0.10;;;23.30;99.90;26.20;101233.00;;;;5033077;28;20183;-64
2023/07/21 14:58:47;;;;;;;0.10;0.10;;;23.10;99.90;26.40;101215.00;;;;5032752;28;20348;-65
2023/07/21 15:01:13;;;;;;;0.30;0.30;;;23.20;99.90;26.90;101201.00;;;;5032812;28;20224;-65
2023/07/21 15:03:39;;;;;;;0.30;0.20;;;23.40;99.90;26.30;101249.00;;;;5031512;28;20643;-65
2023/07/21 15:06:05;;;;;;;0.20;0.20;;;23.30;99.90;26.50;101221.00;;;;5032647;28;20182;-65
2023/07/21 15:08:30;;;;;;;1.88;1.17;;;23.30;99.90;25.80;101270.00;;;;5031624;28;20629;-64
2023/07/21 15:10:56;;;;;;;1.10;0.43;;;23.00;99.90;26.30;101269.00;;;;5032705;28;20190;-65
2023/07/21 15:13:22;;;;;;;1.08;0.98;;;23.10;99.90;25.40;101233.00;;;;5032705;28;20207;-64
2023/07/21 15:15:48;;;;;;;0.73;0.68;;;22.70;99.90;25.50;101276.00;;;;5032578;28;20182;-64
2023/07/21 15:18:14;;;;;;;0.73;0.73;;;22.50;99.90;25.90;101271.00;;;;5032984;28;20189;-65
2023/07/21 15:20:41;;;;;;;1.20;1.20;;;22.70;99.90;25.90;101265.00;;;;5036405;28;20179;-64
2023/07/21 15:23:14;;;;;;;0.10;0.10;;;22.70;99.90;26.20;101249.00;;;;5036378;28;20270;-65
2023/07/21 15:25:47;;;;;;;0.40;0.40;;;22.80;99.90;25.70;101271.00;;;;5034906;28;20194;-64
2023/07/21 15:28:13;;;;;;;0.47;0.47;;;22.70;99.90;26.30;101262.00;;;;5036483;28;20175;-65
2023/07/21 15:30:40;;;;;;;2.50;1.63;;;22.90;99.90;25.30;101268.00;;;;5031782;28;20707;-64
2023/07/21 15:33:07;;;;;;;0.13;0.13;;;22.70;99.90;25.80;101279.00;;;;5033111;28;20306;-64
2023/07/21 15:35:44;;;;;;;0.10;0.10;;;22.70;99.90;26.30;101270.00;;;;5036767;28;20179;-64
2023/07/21 15:38:11;;;;;;;1.17;0.82;;;22.80;99.90;25.50;101241.00;;;;5036007;28;20216;-64
2023/07/21 15:40:38;;;;;;;0.30;0.30;;;22.80;99.90;25.50;101233.00;;;;5035866;28;20175;-65
2023/07/21 15:43:04;;;;;;;0.57;0.57;;;22.50;99.90;25.80;101262.00;;;;5036271;28;20176;-64
2023/07/21 15:45:30;;;;;;;0.10;0.10;;;22.50;99.90;25.80;101271.00;;;;5035004;28;20171;-64
2023/07/21 15:47:56;;;;;;;0.20;0.20;;;22.60;99.90;25.90;101268.00;;;;5035780;28;20183;-64
2023/07/21 15:50:22;;;;;;;0.77;0.77;;;22.70;99.90;25.60;101273.00;;;;5035715;28;20224;-64
2023/07/21 15:52:56;;;;;;;0.15;0.15;;;22.60;99.90;25.40;101281.00;;;;5035893;28;20214;-64
2023/07/21 15:55:23;;;;;;;0.10;0.10;;;22.50;99.90;25.70;101264.00;;;;5036435;28;20324;-64
2023/07/21 15:57:50;;;;;;;0.10;0.10;;;22.40;99.90;26.00;101260.00;;;;5035767;28;20179;-64
2023/07/21 16:00:23;;;;;;;0.13;0.13;;;22.70;99.90;25.90;101275.00;;;;5036464;28;20179;-64
2023/07/21 16:02:53;;;;;;;1.63;0.65;;;22.70;99.90;25.60;101287.00;;;;5023236;28;20183;-64
2023/07/21 16:05:19;;;;;;;1.95;0.52;;;22.70;99.90;25.00;101266.00;;;;5050887;28;20645;-64
2023/07/21 16:07:45;;;;;;;0.68;0.68;;;22.30;99.90;25.60;101267.00;;;;5035794;28;20202;-64
2023/07/21 16:10:13;;;;;;;0.30;0.30;;;22.40;99.90;25.70;101285.00;;;;5035635;28;20261;-64
2023/07/21 16:12:40;;;;;;;0.50;0.50;;;22.50;99.90;25.60;101269.00;;;;5034182;28;20569;-65
2023/07/21 16:15:13;;;;;;;1.40;1.25;;;22.50;99.90;24.90;101291.00;;;;5035100;28;20506;-65
2023/07/21 16:17:38;;;;;;;0.10;0.10;;;22.40;99.90;25.50;101291.00;;;;5034042;28;20182;-64
2023/07/21 16:20:11;;;;;;;0.40;0.40;;;22.20;99.90;25.50;101292.00;;;;5035550;28;20170;-64
2023/07/21 16:22:41;;;;;;;0.10;0.10;;;22.30;99.90;25.50;101294.00;;;;5035041;28;20175;-65
2023/07/21 16:25:08;;;;;;;0.20;0.20;;;22.30;99.90;25.50;101298.00;;;;5034459;28;20694;-66
2023/07/21 16:27:34;;;;;;;0.70;0.70;;;22.40;99.90;25.60;101293.00;;;;5033695;28;20179;-66
2023/07/21 16:30:00;;;;;;;0.10;0.10;;;22.40;99.90;25.70;101283.00;;;;5034254;28;20179;-66
2023/07/21 16:32:27;;;;;;;0.95;0.47;;;22.40;99.90;25.20;101285.00;;;;5034846;28;20234;-66
2023/07/21 16:34:53;;;;;;;2.55;0.57;;;22.20;99.90;25.20;101303.00;;;;5034788;28;20191;-66
2023/07/21 16:37:19;;;;;;;0.22;0.22;;;22.20;99.90;25.70;101288.00;;;;5033402;28;20274;-66
2023/07/21 16:39:48;;;;;;;0.75;0.75;;;22.30;99.90;25.80;101291.00;;;;5033578;28;20254;-66
2023/07/21 16:42:14;;;;;;;0.17;0.17;;;22.50;99.90;25.60;101291.00;;;;5034893;28;20213;-66
2023/07/21 16:44:44;;;;;;;0.10;0.10;;;22.50;99.90;25.50;101300.00;;;;5033273;28;20179;-66
2023/07/21 16:47:10;;;;;;;0.63;0.60;;;22.40;99.90;25.40;101306.00;;;;5015211;28;20540;-66
2023/07/21 16:49:36;;;;;;;0.20;0.20;;;22.40;99.90;25.00;101304.00;;;;5025177;28;20179;-66
2023/07/21 16:52:02;;;;;;;0.95;0.90;;;22.20;99.90;25.00;101306.00;;;;5034494;28;20198;-66
2023/07/21 16:54:31;;;;;;;0.43;0.43;;;22.10;99.90;25.30;101290.00;;;;5033556;28;20969;-66
2023/07/21 16:56:57;;;;;;;2.13;0.77;;;22.10;99.90;25.60;101267.00;;;;5032471;28;20179;-66
2023/07/21 16:59:23;;;;;;;0.25;0.25;;;22.20;99.90;25.20;101302.00;;;;5030102;28;20187;-66
2023/07/21 17:01:48;;;;;;;0.43;0.40;;;22.10;99.90;25.50;101285.00;;;;5034203;28;20187;-66
2023/07/21 17:04:17;;;;;;;0.10;0.10;;;22.20;99.90;25.30;101296.00;;;;5033037;28;20206;-66
2023/07/21 17:06:43;;;;;;;0.10;0.10;;;22.20;99.90;24.70;101304.00;;;;5034163;28;20178;-66
2023/07/21 17:09:15;;;;;;;0.30;0.30;;;22.00;99.90;25.30;101292.00;;;;5033261;28;20262;-66
2023/07/21 17:11:41;;;;;;;0.70;0.63;;;22.00;99.90;24.80;101309.00;;;;5030079;28;20199;-66
2023/07/21 17:14:07;;;;;;;0.10;0.10;;;21.80;99.90;25.40;101265.00;;;;5026890;28;20575;-66
2023/07/21 17:16:33;;;;;;;0.30;0.30;;;22.00;99.90;25.20;101304.00;;;;5033932;28;20202;-66
2023/07/21 17:19:04;;;;;;;0.10;0.10;;;22.00;99.90;25.40;101298.00;;;;5032600;28;20179;-66
2023/07/21 17:21:33;;;;;;;0.57;0.57;;;22.10;99.90;25.10;101307.00;;;;5033750;28;20179;-66
2023/07/21 17:23:59;;;;;;;0.13;0.13;;;21.90;99.90;24.30;101323.00;;;;5032590;28;20191;-66
2023/07/21 17:26:24;;;;;;;0.52;0.52;;;21.70;99.90;25.00;101308.00;;;;5034132;28;20234;-66
2023/07/21 17:28:53;;;;;;;0.57;0.57;;;21.80;99.90;23.80;101326.00;;;;5032425;28;20610;-66
2023/07/21 17:31:19;;;;;;;0.93;0.73;;;21.40;99.90;23.90;101319.00;;;;5033207;28;20214;-66
2023/07/21 17:33:46;;;;;;;0.43;0.43;;;21.20;99.90;24.60;101327.00;;;;5032466;28;20607;-66
2023/07/21 17:36:12;;;;;;;2.95;1.50;;;21.40;99.90;24.90;101327.00;;;;5032354;28;20190;-66
2023/07/21 17:38:38;;;;;;;0.10;0.10;;;21.50;99.90;24.80;101301.00;;;;5033051;28;20209;-66
2023/07/21 17:41:04;;;;;;;2.10;2.00;;;21.60;99.90;24.50;101316.00;;;;5033124;28;20233;-66
2023/07/21 17:43:31;;;;;;;1.90;1.58;;;21.60;99.90;24.10;101344.00;;;;5033120;28;20674;-66
2023/07/21 17:46:06;;;;;;;0.50;0.50;;;21.30;99.90;24.50;101327.00;;;;5032629;28;20186;-66
2023/07/21 17:48:41;;;;;;;0.30;0.30;;;21.40;99.90;24.60;101331.00;;;;5029049;28;20198;-66
2023/07/21 17:51:16;;;;;;;0.57;0.57;;;21.40;99.90;24.20;101347.00;;;;5059279;28;20273;-66
2023/07/21 17:54:10;;;;;;;1.73;1.00;;;21.30;99.90;24.80;101326.00;;;;5033477;28;20622;-66
2023/07/21 17:57:02;;;;;;;0.30;0.30;;;21.40;99.90;24.10;101338.00;;;;5032107;28;20706;-66
2023/07/21 17:59:54;;;;;;;0.60;0.60;;;21.30;99.90;24.70;101329.00;;;;5032634;28;20233;-66
2023/07/21 18:02:25;;;;;;;1.42;1.40;;;21.30;99.90;24.30;101342.00;;;;5032741;28;20563;-66
2023/07/21 18:04:56;;;;;;;0.25;0.25;;;21.30;99.90;24.50;101332.00;;;;5033346;28;20183;-66
2023/07/21 18:07:32;;;;;;;0.43;0.43;;;21.30;99.90;23.90;101345.00;;;;5032119;28;20187;-66
2023/07/21 18:10:01;;;;;;;0.30;0.30;;;21.20;99.90;24.30;101340.00;;;;5032309;28;20644;-66